sensor_id;sensor_type;location;lat;lon;timestamp;pressure;altitude;pressure_sealevel;temperature;humidity
12215;BME280;6170;42.206;24.142;2022-08-04T00:01:32;98896.53;;;22.23;68.91
12215;BME280;6170;42.206;24.142;2022-08-04T00:04:03;98900.84;;;22.44;68.52
12215;BME280;6170;42.206;24.142;2022-08-04T00:06:44;98910.41;;;22.47;68.77
12215;BME280;6170;42.206;24.142;2022-08-04T00:09:17;98915.31;;;22.45;69.08
12215;BME280;6170;42.206;24.142;2022-08-04T00:11:45;98913.16;;;22.31;69.02
12215;BME280;6170;42.206;24.142;2022-08-04T00:14:15;98912.63;;;22.29;69.50
12215;BME280;6170;42.206;24.142;2022-08-04T00:16:46;98914.50;;;22.69;68.17
12215;BME280;6170;42.206;24.142;2022-08-04T00:19:17;98916.41;;;22.59;68.32
12215;BME280;6170;42.206;24.142;2022-08-04T00:21:59;98903.88;;;22.37;68.48
12215;BME280;6170;42.206;24.142;2022-08-04T00:24:29;98906.09;;;22.00;69.82
12215;BME280;6170;42.206;24.142;2022-08-04T00:26:57;98902.53;;;22.20;69.43
12215;BME280;6170;42.206;24.142;2022-08-04T00:29:24;98912.31;;;22.61;67.84
12215;BME280;6170;42.206;24.142;2022-08-04T00:31:54;98918.84;;;22.70;67.80
12215;BME280;6170;42.206;24.142;2022-08-04T00:34:23;98917.22;;;22.54;68.24
12215;BME280;6170;42.206;24.142;2022-08-04T00:36:52;98913.47;;;22.30;68.63
12215;BME280;6170;42.206;24.142;2022-08-04T00:39:21;98921.59;;;22.55;67.95
12215;BME280;6170;42.206;24.142;2022-08-04T00:42:13;98916.41;;;22.59;67.41
12215;BME280;6170;42.206;24.142;2022-08-04T00:44:58;98919.41;;;22.72;67.42
12215;BME280;6170;42.206;24.142;2022-08-04T00:47:40;98925.66;;;22.68;67.25
12215;BME280;6170;42.206;24.142;2022-08-04T00:50:17;98931.44;;;22.46;67.94
12215;BME280;6170;42.206;24.142;2022-08-04T00:52:55;98926.78;;;22.72;67.02
12215;BME280;6170;42.206;24.142;2022-08-04T00:55:45;98936.84;;;22.87;66.72
12215;BME280;6170;42.206;24.142;2022-08-04T00:58:28;98922.34;;;22.86;66.44
12215;BME280;6170;42.206;24.142;2022-08-04T01:01:00;98917.16;;;22.84;66.42
12215;BME280;6170;42.206;24.142;2022-08-04T01:03:43;98920.75;;;22.75;66.59
12215;BME280;6170;42.206;24.142;2022-08-04T01:06:13;98926.50;;;22.63;67.06
12215;BME280;6170;42.206;24.142;2022-08-04T01:08:51;98916.41;;;22.54;67.32
12215;BME280;6170;42.206;24.142;2022-08-04T01:11:33;98917.28;;;22.39;67.62
12215;BME280;6170;42.206;24.142;2022-08-04T01:14:21;98911.50;;;22.46;67.15
12215;BME280;6170;42.206;24.142;2022-08-04T01:17:03;98920.00;;;22.39;67.42
12215;BME280;6170;42.206;24.142;2022-08-04T01:19:52;98925.16;;;22.56;67.14
12215;BME280;6170;42.206;24.142;2022-08-04T01:22:49;98916.69;;;22.47;67.29
12215;BME280;6170;42.206;24.142;2022-08-04T01:25:49;98912.91;;;22.43;67.92
12215;BME280;6170;42.206;24.142;2022-08-04T01:28:35;98927.06;;;22.60;67.49
12215;BME280;6170;42.206;24.142;2022-08-04T01:31:20;98925.41;;;22.64;67.95
12215;BME280;6170;42.206;24.142;2022-08-04T01:33:57;98919.41;;;22.57;67.95
12215;BME280;6170;42.206;24.142;2022-08-04T01:36:25;98927.31;;;22.54;67.79
12215;BME280;6170;42.206;24.142;2022-08-04T01:38:54;98930.06;;;22.49;68.35
12215;BME280;6170;42.206;24.142;2022-08-04T01:41:21;98921.66;;;21.94;69.63
12215;BME280;6170;42.206;24.142;2022-08-04T01:43:53;98922.19;;;22.22;68.65
12215;BME280;6170;42.206;24.142;2022-08-04T01:46:24;98917.28;;;22.09;68.91
12215;BME280;6170;42.206;24.142;2022-08-04T01:48:53;98911.53;;;21.80;69.67
12215;BME280;6170;42.206;24.142;2022-08-04T01:51:21;98912.09;;;21.97;69.29
12215;BME280;6170;42.206;24.142;2022-08-04T01:53:50;98921.13;;;22.08;68.83
12215;BME280;6170;42.206;24.142;2022-08-04T01:56:18;98913.44;;;21.79;69.25
12215;BME280;6170;42.206;24.142;2022-08-04T01:58:47;98925.50;;;21.99;68.93
12215;BME280;6170;42.206;24.142;2022-08-04T02:01:14;98914.28;;;21.90;68.93
12215;BME280;6170;42.206;24.142;2022-08-04T02:03:44;98912.91;;;21.77;69.20
12215;BME280;6170;42.206;24.142;2022-08-04T02:06:21;98906.09;;;21.90;68.98
12215;BME280;6170;42.206;24.142;2022-08-04T02:09:03;98913.19;;;21.86;68.99
12215;BME280;6170;42.206;24.142;2022-08-04T02:11:34;98911.28;;;22.12;67.98
12215;BME280;6170;42.206;24.142;2022-08-04T02:14:16;98921.66;;;22.05;67.76
12215;BME280;6170;42.206;24.142;2022-08-04T02:17:00;98913.75;;;22.03;68.05
12215;BME280;6170;42.206;24.142;2022-08-04T02:19:32;98915.94;;;22.01;68.28
12215;BME280;6170;42.206;24.142;2022-08-04T02:22:06;98914.81;;;21.92;68.59
12215;BME280;6170;42.206;24.142;2022-08-04T02:24:36;98926.25;;;21.84;69.08
12215;BME280;6170;42.206;24.142;2022-08-04T02:27:07;98929.81;;;21.79;68.23
12215;BME280;6170;42.206;24.142;2022-08-04T02:29:42;98929.81;;;21.79;68.51
12215;BME280;6170;42.206;24.142;2022-08-04T02:32:19;98941.81;;;21.68;68.90
12215;BME280;6170;42.206;24.142;2022-08-04T02:34:52;98935.22;;;21.69;68.96
12215;BME280;6170;42.206;24.142;2022-08-04T02:37:20;98922.13;;;21.56;69.26
12215;BME280;6170;42.206;24.142;2022-08-04T02:39:52;98924.31;;;21.49;69.49
12215;BME280;6170;42.206;24.142;2022-08-04T02:42:20;98931.13;;;21.41;69.21
12215;BME280;6170;42.206;24.142;2022-08-04T02:44:49;98925.34;;;21.28;69.65
12215;BME280;6170;42.206;24.142;2022-08-04T02:47:17;98926.16;;;21.23;69.56
12215;BME280;6170;42.206;24.142;2022-08-04T02:49:46;98928.47;;;20.99;70.27
12215;BME280;6170;42.206;24.142;2022-08-04T02:52:15;98926.34;;;21.12;70.07
12215;BME280;6170;42.206;24.142;2022-08-04T02:54:44;98928.53;;;21.10;69.92
12215;BME280;6170;42.206;24.142;2022-08-04T02:57:14;98921.69;;;21.07;70.15
12215;BME280;6170;42.206;24.142;2022-08-04T02:59:53;98920.88;;;21.01;70.50
12215;BME280;6170;42.206;24.142;2022-08-04T03:02:33;98920.88;;;21.01;70.21
12215;BME280;6170;42.206;24.142;2022-08-04T03:05:09;98921.63;;;20.87;70.42
12215;BME280;6170;42.206;24.142;2022-08-04T03:08:17;98936.84;;;20.83;70.90
12215;BME280;6170;42.206;24.142;2022-08-04T03:11:27;98938.22;;;20.85;70.51
12215;BME280;6170;42.206;24.142;2022-08-04T03:14:24;98946.22;;;20.55;71.48
12215;BME280;6170;42.206;24.142;2022-08-04T03:17:47;98942.53;;;20.71;71.02
12215;BME280;6170;42.206;24.142;2022-08-04T03:35:50;98932.69;;;20.70;71.13
12215;BME280;6170;42.206;24.142;2022-08-04T03:38:45;98922.91;;;20.74;71.56
12215;BME280;6170;42.206;24.142;2022-08-04T03:41:42;98936.19;;;20.60;71.82
12215;BME280;6170;42.206;24.142;2022-08-04T03:47:42;98936.97;;;20.56;72.14
12215;BME280;6170;42.206;24.142;2022-08-04T03:53:23;98940.59;;;20.72;71.46
12215;BME280;6170;42.206;24.142;2022-08-04T03:59:34;98934.47;;;20.44;72.11
12215;BME280;6170;42.206;24.142;2022-08-04T04:02:32;98944.56;;;20.54;71.59
12215;BME280;6170;42.206;24.142;2022-08-04T04:05:26;98940.44;;;20.46;72.23
12215;BME280;6170;42.206;24.142;2022-08-04T04:08:09;98948.22;;;20.70;71.48
12215;BME280;6170;42.206;24.142;2022-08-04T04:16:35;98950.91;;;21.17;69.91
12215;BME280;6170;42.206;24.142;2022-08-04T04:19:43;98947.16;;;21.28;70.00
12215;BME280;6170;42.206;24.142;2022-08-04T04:22:29;98941.72;;;21.33;69.80
12215;BME280;6170;42.206;24.142;2022-08-04T04:25:15;98941.72;;;21.43;69.30
12215;BME280;6170;42.206;24.142;2022-08-04T04:28:04;98938.19;;;21.47;69.03
12215;BME280;6170;42.206;24.142;2022-08-04T04:30:43;98939.59;;;21.55;69.26
12215;BME280;6170;42.206;24.142;2022-08-04T04:33:30;98947.50;;;21.67;68.08
12215;BME280;6170;42.206;24.142;2022-08-04T04:36:09;98946.19;;;21.84;68.01
12215;BME280;6170;42.206;24.142;2022-08-04T04:39:02;98949.44;;;21.71;68.75
12215;BME280;6170;42.206;24.142;2022-08-04T04:42:12;98948.88;;;21.74;68.92
12215;BME280;6170;42.206;24.142;2022-08-04T04:44:58;98944.53;;;21.78;68.11
12215;BME280;6170;42.206;24.142;2022-08-04T04:47:36;98950.47;;;21.45;69.26
12215;BME280;6170;42.206;24.142;2022-08-04T04:50:12;98945.66;;;21.98;67.93
12215;BME280;6170;42.206;24.142;2022-08-04T04:52:44;98951.63;;;21.79;68.54
12215;BME280;6170;42.206;24.142;2022-08-04T04:55:18;98953.25;;;21.75;68.06
12215;BME280;6170;42.206;24.142;2022-08-04T04:57:50;98948.66;;;21.86;68.49
12215;BME280;6170;42.206;24.142;2022-08-04T05:00:18;98955.44;;;21.83;68.36
12215;BME280;6170;42.206;24.142;2022-08-04T05:03:20;98949.22;;;22.28;67.49
12215;BME280;6170;42.206;24.142;2022-08-04T05:06:26;98958.81;;;23.25;65.24
12215;BME280;6170;42.206;24.142;2022-08-04T05:09:16;98950.84;;;23.44;63.87
12215;BME280;6170;42.206;24.142;2022-08-04T05:14:44;98960.69;;;23.35;64.58
12215;BME280;6170;42.206;24.142;2022-08-04T05:17:16;98961.91;;;23.68;64.07
12215;BME280;6170;42.206;24.142;2022-08-04T05:19:52;98970.19;;;23.97;63.33
12215;BME280;6170;42.206;24.142;2022-08-04T05:22:26;98967.13;;;24.03;62.75
12215;BME280;6170;42.206;24.142;2022-08-04T05:25:01;98967.13;;;23.64;63.90
12215;BME280;6170;42.206;24.142;2022-08-04T05:27:33;98964.91;;;23.71;63.88
12215;BME280;6170;42.206;24.142;2022-08-04T05:30:04;98968.19;;;23.68;64.01
12215;BME280;6170;42.206;24.142;2022-08-04T05:32:36;98970.19;;;23.97;63.16
12215;BME280;6170;42.206;24.142;2022-08-04T05:35:10;98959.88;;;23.89;63.93
12215;BME280;6170;42.206;24.142;2022-08-04T05:37:40;98961.00;;;24.22;63.25
12215;BME280;6170;42.206;24.142;2022-08-04T05:40:10;98967.25;;;24.27;63.00
12215;BME280;6170;42.206;24.142;2022-08-04T05:42:39;98971.94;;;24.22;62.97
12215;BME280;6170;42.206;24.142;2022-08-04T05:45:08;98977.50;;;24.45;62.93
12215;BME280;6170;42.206;24.142;2022-08-04T05:47:35;98973.34;;;24.48;62.63
12215;BME280;6170;42.206;24.142;2022-08-04T05:50:05;98975.38;;;24.66;62.63
12215;BME280;6170;42.206;24.142;2022-08-04T05:52:34;98974.09;;;24.58;62.49
12215;BME280;6170;42.206;24.142;2022-08-04T05:55:04;98970.63;;;25.00;61.42
12215;BME280;6170;42.206;24.142;2022-08-04T05:57:33;98978.94;;;25.80;60.55
12215;BME280;6170;42.206;24.142;2022-08-04T06:00:03;98970.81;;;26.45;59.96
12215;BME280;6170;42.206;24.142;2022-08-04T06:02:32;98971.09;;;26.44;59.80
12215;BME280;6170;42.206;24.142;2022-08-04T06:05:00;98978.88;;;27.56;56.27
12215;BME280;6170;42.206;24.142;2022-08-04T06:07:29;98971.66;;;28.40;53.31
12215;BME280;6170;42.206;24.142;2022-08-04T06:09:56;98969.38;;;28.95;52.00
12215;BME280;6170;42.206;24.142;2022-08-04T06:12:31;98965.88;;;29.60;51.42
12215;BME280;6170;42.206;24.142;2022-08-04T06:15:03;98968.38;;;29.96;49.51
12215;BME280;6170;42.206;24.142;2022-08-04T06:17:33;98963.56;;;29.36;49.15
12215;BME280;6170;42.206;24.142;2022-08-04T06:20:03;98964.22;;;29.51;49.17
12215;BME280;6170;42.206;24.142;2022-08-04T06:22:32;98958.28;;;30.17;50.86
12215;BME280;6170;42.206;24.142;2022-08-04T06:25:00;98952.22;;;30.50;48.97
12215;BME280;6170;42.206;24.142;2022-08-04T06:27:30;98958.28;;;30.09;48.45
12215;BME280;6170;42.206;24.142;2022-08-04T06:29:57;98961.22;;;30.04;47.40
12215;BME280;6170;42.206;24.142;2022-08-04T06:32:27;98952.34;;;30.70;46.49
12215;BME280;6170;42.206;24.142;2022-08-04T06:35:03;98953.03;;;31.35;46.97
12215;BME280;6170;42.206;24.142;2022-08-04T06:37:31;98956.34;;;31.57;47.88
12215;BME280;6170;42.206;24.142;2022-08-04T06:39:59;98957.41;;;31.94;44.91
12215;BME280;6170;42.206;24.142;2022-08-04T06:42:27;98960.41;;;32.43;45.61
12215;BME280;6170;42.206;24.142;2022-08-04T06:44:58;98963.72;;;32.69;42.52
12215;BME280;6170;42.206;24.142;2022-08-04T06:47:26;98957.59;;;32.31;43.83
12215;BME280;6170;42.206;24.142;2022-08-04T06:49:54;98941.31;;;31.67;44.18
12215;BME280;6170;42.206;24.142;2022-08-04T06:52:22;98944.06;;;32.08;45.41
12215;BME280;6170;42.206;24.142;2022-08-04T06:54:50;98937.28;;;32.51;46.49
12215;BME280;6170;42.206;24.142;2022-08-04T06:57:19;98934.13;;;32.40;45.64
12215;BME280;6170;42.206;24.142;2022-08-04T06:59:50;98947.72;;;32.21;46.63
12215;BME280;6170;42.206;24.142;2022-08-04T07:02:23;98934.91;;;32.29;45.75
12215;BME280;6170;42.206;24.142;2022-08-04T07:04:51;98933.44;;;32.88;45.40
12215;BME280;6170;42.206;24.142;2022-08-04T07:07:19;98935.06;;;32.89;45.38
12215;BME280;6170;42.206;24.142;2022-08-04T07:09:46;98942.50;;;33.10;45.70
12215;BME280;6170;42.206;24.142;2022-08-04T07:12:15;98940.28;;;33.52;44.80
12215;BME280;6170;42.206;24.142;2022-08-04T07:14:45;98933.09;;;33.75;43.64
12215;BME280;6170;42.206;24.142;2022-08-04T07:17:13;98938.56;;;33.47;44.10
12215;BME280;6170;42.206;24.142;2022-08-04T07:19:42;98924.94;;;33.18;43.09
12215;BME280;6170;42.206;24.142;2022-08-04T07:22:10;98933.38;;;32.52;44.45
12215;BME280;6170;42.206;24.142;2022-08-04T07:24:38;98925.28;;;32.59;46.81
12215;BME280;6170;42.206;24.142;2022-08-04T07:27:07;98927.44;;;32.86;46.32
12215;BME280;6170;42.206;24.142;2022-08-04T07:29:35;98927.28;;;32.71;45.95
12215;BME280;6170;42.206;24.142;2022-08-04T07:32:03;98915.66;;;33.38;45.91
12215;BME280;6170;42.206;24.142;2022-08-04T07:34:31;98918.03;;;33.64;44.57
12215;BME280;6170;42.206;24.142;2022-08-04T07:37:00;98913.13;;;34.13;42.23
12215;BME280;6170;42.206;24.142;2022-08-04T07:39:28;98914.22;;;34.36;41.13
12215;BME280;6170;42.206;24.142;2022-08-04T07:41:58;98909.28;;;34.30;43.73
12215;BME280;6170;42.206;24.142;2022-08-04T07:44:26;98906.84;;;34.44;41.14
12215;BME280;6170;42.206;24.142;2022-08-04T07:46:53;98912.25;;;34.37;44.72
12215;BME280;6170;42.206;24.142;2022-08-04T07:49:20;98915.78;;;33.94;42.01
12215;BME280;6170;42.206;24.142;2022-08-04T07:51:49;98914.69;;;34.54;40.12
12215;BME280;6170;42.206;24.142;2022-08-04T07:54:18;98911.28;;;33.89;42.25
12215;BME280;6170;42.206;24.142;2022-08-04T07:56:45;98907.03;;;34.35;40.21
12215;BME280;6170;42.206;24.142;2022-08-04T07:59:14;98896.97;;;34.31;42.86
12215;BME280;6170;42.206;24.142;2022-08-04T08:01:41;98898.22;;;34.05;41.81
12215;BME280;6170;42.206;24.142;2022-08-04T08:04:10;98900.59;;;33.91;40.45
12215;BME280;6170;42.206;24.142;2022-08-04T08:06:38;98891.78;;;34.29;41.54
12215;BME280;6170;42.206;24.142;2022-08-04T08:09:08;98894.06;;;34.70;38.34
12215;BME280;6170;42.206;24.142;2022-08-04T08:11:37;98892.19;;;34.90;37.91
12215;BME280;6170;42.206;24.142;2022-08-04T08:14:04;98885.97;;;34.50;38.32
12215;BME280;6170;42.206;24.142;2022-08-04T08:16:33;98891.06;;;34.48;39.87
12215;BME280;6170;42.206;24.142;2022-08-04T08:19:00;98891.59;;;34.10;40.84
12215;BME280;6170;42.206;24.142;2022-08-04T08:21:28;98895.56;;;33.81;40.38
12215;BME280;6170;42.206;24.142;2022-08-04T08:23:55;98896.66;;;34.79;41.40
12215;BME280;6170;42.206;24.142;2022-08-04T08:26:23;98887.66;;;34.54;39.42
12215;BME280;6170;42.206;24.142;2022-08-04T08:28:52;98900.03;;;34.25;38.55
12215;BME280;6170;42.206;24.142;2022-08-04T08:31:19;98896.38;;;34.53;39.25
12215;BME280;6170;42.206;24.142;2022-08-04T08:33:46;98882.09;;;35.01;39.78
12215;BME280;6170;42.206;24.142;2022-08-04T08:36:18;98889.31;;;35.18;41.08
12215;BME280;6170;42.206;24.142;2022-08-04T08:38:52;98893.00;;;35.22;40.18
12215;BME280;6170;42.206;24.142;2022-08-04T08:41:39;98890.00;;;35.50;40.02
12215;BME280;6170;42.206;24.142;2022-08-04T08:47:21;98894.13;;;35.91;37.01
12215;BME280;6170;42.206;24.142;2022-08-04T08:50:15;98882.16;;;35.90;38.11
12215;BME280;6170;42.206;24.142;2022-08-04T08:52:55;98879.59;;;36.20;38.48
12215;BME280;6170;42.206;24.142;2022-08-04T08:55:38;98882.16;;;36.10;37.56
12215;BME280;6170;42.206;24.142;2022-08-04T08:58:37;98878.78;;;36.00;36.30
12215;BME280;6170;42.206;24.142;2022-08-04T09:01:24;98879.28;;;35.68;35.04
12215;BME280;6170;42.206;24.142;2022-08-04T09:04:31;98866.81;;;35.11;35.46
12215;BME280;6170;42.206;24.142;2022-08-04T09:07:22;98871.59;;;35.26;35.09
12215;BME280;6170;42.206;24.142;2022-08-04T09:10:08;98864.84;;;35.11;37.69
12215;BME280;6170;42.206;24.142;2022-08-04T09:12:43;98862.84;;;34.18;37.59
12215;BME280;6170;42.206;24.142;2022-08-04T09:15:14;98865.13;;;35.06;37.87
12215;BME280;6170;42.206;24.142;2022-08-04T09:17:47;98859.53;;;35.57;36.41
12215;BME280;6170;42.206;24.142;2022-08-04T09:20:24;98854.63;;;36.27;35.33
12215;BME280;6170;42.206;24.142;2022-08-04T09:23:03;98863.59;;;36.17;34.83
12215;BME280;6170;42.206;24.142;2022-08-04T09:25:38;98858.81;;;36.60;36.79
12215;BME280;6170;42.206;24.142;2022-08-04T09:28:12;98847.69;;;36.63;33.92
12215;BME280;6170;42.206;24.142;2022-08-04T09:30:45;98857.75;;;36.26;34.38
12215;BME280;6170;42.206;24.142;2022-08-04T09:33:25;98847.84;;;36.09;37.98
12215;BME280;6170;42.206;24.142;2022-08-04T09:35:58;98843.66;;;36.38;38.26
12215;BME280;6170;42.206;24.142;2022-08-04T09:38:32;98839.09;;;36.30;39.04
12215;BME280;6170;42.206;24.142;2022-08-04T09:41:11;98844.31;;;37.26;35.85
12215;BME280;6170;42.206;24.142;2022-08-04T09:43:48;98841.41;;;37.19;33.02
12215;BME280;6170;42.206;24.142;2022-08-04T09:46:24;98841.25;;;36.59;32.50
12215;BME280;6170;42.206;24.142;2022-08-04T09:48:57;98839.59;;;36.58;36.96
12215;BME280;6170;42.206;24.142;2022-08-04T09:51:37;98824.69;;;35.86;33.18
12215;BME280;6170;42.206;24.142;2022-08-04T09:54:15;98838.03;;;35.96;35.83
12215;BME280;6170;42.206;24.142;2022-08-04T09:56:51;98824.03;;;36.34;34.64
12215;BME280;6170;42.206;24.142;2022-08-04T09:59:24;98820.25;;;36.46;36.34
12215;BME280;6170;42.206;24.142;2022-08-04T10:01:54;98819.34;;;36.61;32.52
12215;BME280;6170;42.206;24.142;2022-08-04T10:04:25;98824.41;;;36.56;31.49
12215;BME280;6170;42.206;24.142;2022-08-04T10:07:17;98821.31;;;36.15;32.93
12215;BME280;6170;42.206;24.142;2022-08-04T10:10:04;98811.84;;;36.42;33.25
12215;BME280;6170;42.206;24.142;2022-08-04T10:12:42;98815.03;;;36.90;32.49
12215;BME280;6170;42.206;24.142;2022-08-04T10:15:19;98813.97;;;36.30;34.69
12215;BME280;6170;42.206;24.142;2022-08-04T10:18:16;98818.41;;;35.70;32.91
12215;BME280;6170;42.206;24.142;2022-08-04T10:20:57;98814.31;;;35.29;32.53
12215;BME280;6170;42.206;24.142;2022-08-04T10:23:35;98812.25;;;34.59;35.19
12215;BME280;6170;42.206;24.142;2022-08-04T10:26:17;98801.88;;;34.56;34.42
12215;BME280;6170;42.206;24.142;2022-08-04T10:28:52;98807.38;;;34.88;36.52
12215;BME280;6170;42.206;24.142;2022-08-04T10:31:27;98804.94;;;35.18;36.82
12215;BME280;6170;42.206;24.142;2022-08-04T10:33:59;98804.94;;;35.18;34.12
12215;BME280;6170;42.206;24.142;2022-08-04T10:36:32;98807.63;;;35.14;36.00
12215;BME280;6170;42.206;24.142;2022-08-04T10:39:09;98801.06;;;35.22;36.45
12215;BME280;6170;42.206;24.142;2022-08-04T10:41:46;98802.75;;;35.46;37.39
12215;BME280;6170;42.206;24.142;2022-08-04T10:44:21;98790.72;;;35.61;35.52
12215;BME280;6170;42.206;24.142;2022-08-04T10:46:57;98800.69;;;36.20;34.96
12215;BME280;6170;42.206;24.142;2022-08-04T10:49:33;98784.59;;;36.59;33.30
12215;BME280;6170;42.206;24.142;2022-08-04T10:52:06;98786.84;;;37.02;35.86
12215;BME280;6170;42.206;24.142;2022-08-04T10:54:42;98791.38;;;36.84;33.63
12215;BME280;6170;42.206;24.142;2022-08-04T10:57:20;98780.75;;;36.21;34.12
12215;BME280;6170;42.206;24.142;2022-08-04T10:59:52;98790.63;;;35.96;31.80
12215;BME280;6170;42.206;24.142;2022-08-04T11:02:33;98776.44;;;36.99;33.02
12215;BME280;6170;42.206;24.142;2022-08-04T11:05:11;98775.34;;;37.33;32.18
12215;BME280;6170;42.206;24.142;2022-08-04T11:07:44;98772.69;;;36.88;32.22
12215;BME280;6170;42.206;24.142;2022-08-04T11:10:12;98773.41;;;36.59;32.92
12215;BME280;6170;42.206;24.142;2022-08-04T11:12:41;98768.91;;;37.29;31.38
12215;BME280;6170;42.206;24.142;2022-08-04T11:15:12;98758.44;;;36.97;31.84
12215;BME280;6170;42.206;24.142;2022-08-04T11:17:43;98768.25;;;37.40;34.45
12215;BME280;6170;42.206;24.142;2022-08-04T11:20:16;98755.78;;;37.33;34.14
12215;BME280;6170;42.206;24.142;2022-08-04T11:23:00;98752.63;;;37.68;33.22
12215;BME280;6170;42.206;24.142;2022-08-04T11:25:32;98765.47;;;36.87;31.46
12215;BME280;6170;42.206;24.142;2022-08-04T11:28:04;98759.09;;;35.92;32.91
12215;BME280;6170;42.206;24.142;2022-08-04T11:30:37;98761.91;;;35.53;32.81
12215;BME280;6170;42.206;24.142;2022-08-04T11:33:09;98751.06;;;34.94;34.91
12215;BME280;6170;42.206;24.142;2022-08-04T11:35:46;98751.78;;;34.41;35.47
12215;BME280;6170;42.206;24.142;2022-08-04T11:38:22;98761.19;;;34.52;35.50
12215;BME280;6170;42.206;24.142;2022-08-04T11:40:57;98754.38;;;34.18;35.08
12215;BME280;6170;42.206;24.142;2022-08-04T11:43:34;98757.88;;;34.31;35.17
12215;BME280;6170;42.206;24.142;2022-08-04T11:46:10;98749.66;;;33.75;36.28
12215;BME280;6170;42.206;24.142;2022-08-04T11:48:41;98760.06;;;33.22;39.41
12215;BME280;6170;42.206;24.142;2022-08-04T11:51:11;98751.19;;;32.80;38.03
12215;BME280;6170;42.206;24.142;2022-08-04T11:53:39;98759.75;;;32.87;38.25
12215;BME280;6170;42.206;24.142;2022-08-04T11:56:11;98750.03;;;32.81;39.89
12215;BME280;6170;42.206;24.142;2022-08-04T11:58:40;98750.28;;;32.76;38.83
12215;BME280;6170;42.206;24.142;2022-08-04T12:01:14;98743.84;;;33.12;38.83
12215;BME280;6170;42.206;24.142;2022-08-04T12:03:48;98744.72;;;33.28;37.64
12215;BME280;6170;42.206;24.142;2022-08-04T12:06:29;98744.38;;;33.30;38.59
12215;BME280;6170;42.206;24.142;2022-08-04T12:09:08;98741.16;;;33.56;38.42
12215;BME280;6170;42.206;24.142;2022-08-04T12:11:59;98739.56;;;33.55;38.90
12215;BME280;6170;42.206;24.142;2022-08-04T12:14:39;98741.22;;;33.44;37.44
12215;BME280;6170;42.206;24.142;2022-08-04T12:17:09;98745.97;;;33.71;37.80
12215;BME280;6170;42.206;24.142;2022-08-04T12:19:43;98735.84;;;33.78;36.10
12215;BME280;6170;42.206;24.142;2022-08-04T12:22:15;98731.09;;;33.79;36.48
12215;BME280;6170;42.206;24.142;2022-08-04T12:24:48;98735.59;;;33.99;36.53
12215;BME280;6170;42.206;24.142;2022-08-04T12:27:20;98731.84;;;34.07;39.21
12215;BME280;6170;42.206;24.142;2022-08-04T12:29:51;98738.03;;;34.01;41.18
12215;BME280;6170;42.206;24.142;2022-08-04T12:32:23;98724.56;;;33.87;36.64
12215;BME280;6170;42.206;24.142;2022-08-04T12:35:02;98732.91;;;33.87;41.39
12215;BME280;6170;42.206;24.142;2022-08-04T12:37:40;98731.19;;;33.82;41.46
12215;BME280;6170;42.206;24.142;2022-08-04T12:40:15;98729.72;;;33.73;40.95
12215;BME280;6170;42.206;24.142;2022-08-04T12:42:47;98725.03;;;33.61;41.13
12215;BME280;6170;42.206;24.142;2022-08-04T12:45:21;98727.72;;;33.58;42.24
12215;BME280;6170;42.206;24.142;2022-08-04T12:47:50;98718.84;;;33.12;43.12
12215;BME280;6170;42.206;24.142;2022-08-04T12:50:19;98717.47;;;33.06;41.04
12215;BME280;6170;42.206;24.142;2022-08-04T12:52:51;98719.88;;;33.20;39.72
12215;BME280;6170;42.206;24.142;2022-08-04T12:55:24;98719.53;;;33.21;41.46
12215;BME280;6170;42.206;24.142;2022-08-04T12:57:53;98711.97;;;33.34;40.82
12215;BME280;6170;42.206;24.142;2022-08-04T13:00:27;98727.63;;;33.26;41.16
12215;BME280;6170;42.206;24.142;2022-08-04T13:02:58;98710.19;;;33.14;40.67
12215;BME280;6170;42.206;24.142;2022-08-04T13:05:28;98722.97;;;33.30;39.66
12215;BME280;6170;42.206;24.142;2022-08-04T13:07:57;98715.38;;;33.27;37.83
12215;BME280;6170;42.206;24.142;2022-08-04T13:10:28;98720.31;;;33.34;40.11
12215;BME280;6170;42.206;24.142;2022-08-04T13:12:57;98718.19;;;33.43;40.79
12215;BME280;6170;42.206;24.142;2022-08-04T13:15:26;98715.78;;;33.85;41.60
12215;BME280;6170;42.206;24.142;2022-08-04T13:17:58;98707.34;;;34.13;41.18
12215;BME280;6170;42.206;24.142;2022-08-04T13:20:28;98705.91;;;34.85;41.69
12215;BME280;6170;42.206;24.142;2022-08-04T13:23:03;98706.03;;;35.08;39.08
12215;BME280;6170;42.206;24.142;2022-08-04T13:25:33;98708.09;;;35.30;38.44
12215;BME280;6170;42.206;24.142;2022-08-04T13:28:01;98705.94;;;35.62;37.39
12215;BME280;6170;42.206;24.142;2022-08-04T13:30:30;98710.78;;;35.65;36.23
12215;BME280;6170;42.206;24.142;2022-08-04T13:33:01;98699.59;;;35.84;34.57
12215;BME280;6170;42.206;24.142;2022-08-04T13:35:30;98696.72;;;35.81;35.15
12215;BME280;6170;42.206;24.142;2022-08-04T13:37:59;98696.38;;;35.21;35.36
12215;BME280;6170;42.206;24.142;2022-08-04T13:40:28;98695.72;;;34.74;36.62
12215;BME280;6170;42.206;24.142;2022-08-04T13:42:57;98691.78;;;34.94;34.10
12215;BME280;6170;42.206;24.142;2022-08-04T13:45:25;98692.00;;;34.85;33.89
12215;BME280;6170;42.206;24.142;2022-08-04T13:47:57;98690.22;;;35.31;36.38
12215;BME280;6170;42.206;24.142;2022-08-04T13:50:27;98689.00;;;35.51;34.13
12215;BME280;6170;42.206;24.142;2022-08-04T13:52:57;98677.91;;;35.55;33.76
12215;BME280;6170;42.206;24.142;2022-08-04T13:55:28;98683.38;;;35.67;33.01
12215;BME280;6170;42.206;24.142;2022-08-04T13:58:00;98682.44;;;35.63;35.02
12215;BME280;6170;42.206;24.142;2022-08-04T14:00:44;98677.22;;;36.03;35.11
12215;BME280;6170;42.206;24.142;2022-08-04T14:03:20;98667.41;;;36.36;34.61
12215;BME280;6170;42.206;24.142;2022-08-04T14:06:10;98668.34;;;36.21;32.75
12215;BME280;6170;42.206;24.142;2022-08-04T14:08:47;98667.16;;;35.99;34.05
12215;BME280;6170;42.206;24.142;2022-08-04T14:11:16;98667.88;;;35.92;34.02
12215;BME280;6170;42.206;24.142;2022-08-04T14:13:45;98673.28;;;36.08;34.64
12215;BME280;6170;42.206;24.142;2022-08-04T14:16:13;98654.72;;;35.93;35.14
12215;BME280;6170;42.206;24.142;2022-08-04T14:18:41;98658.13;;;35.83;35.40